Time;durP1;ratioP1;P1;durP2;ratioP2;P2;SDS_P1;SDS_P2;PMS_P1;PMS_P2;Temp;Humidity;BMP_temperature;BMP_pressure;BME280_temperature;BME280_humidity;BME280_pressure;Samples;Min_cycle;Max_cycle;Signal;HPM_P1;HPM_P2
2022/11/24 00:01:52;;;;;;;32.83;20.37;;;4.00;1.00;;;;;;5046825;28;21117;-63
2022/11/24 00:04:17;;;;;;;32.97;20.30;;;4.00;1.00;;;;;;5047604;28;20198;-64
2022/11/24 00:06:43;;;;;;;33.57;18.63;;;3.90;1.00;;;;;;5053849;28;20201;-63
2022/11/24 00:09:09;;;;;;;33.30;18.77;;;3.90;1.00;;;;;;5052082;28;20662;-64
2022/11/24 00:11:35;;;;;;;29.57;19.30;;;3.90;1.00;;;;;;5048007;28;20197;-65
2022/11/24 00:14:02;;;;;;;32.97;19.60;;;3.90;1.00;;;;;;5040429;28;20549;-65
2022/11/24 00:16:33;;;;;;;32.47;16.60;;;3.80;1.00;;;;;;5045181;28;20887;-63
2022/11/24 00:19:03;;;;;;;24.97;16.57;;;3.80;1.00;;;;;;5049424;28;20508;-64
2022/11/24 00:21:30;;;;;;;29.63;17.33;;;3.80;1.00;;;;;;5050129;28;20444;-64
2022/11/24 00:23:56;;;;;;;31.93;19.20;;;3.80;1.00;;;;;;5063419;28;20926;-64
2022/11/24 00:26:33;;;;;;;28.90;18.00;;;3.80;1.00;;;;;;5048297;28;20506;-64
2022/11/24 00:29:01;;;;;;;30.63;16.90;;;3.80;1.00;;;;;;5047707;28;20449;-63
2022/11/24 00:31:36;;;;;;;33.50;17.30;;;3.70;1.00;;;;;;5048051;28;20503;-64
2022/11/24 00:34:04;;;;;;;34.90;18.53;;;3.70;1.00;;;;;;5056256;28;20457;-64
2022/11/24 00:36:32;;;;;;;34.23;18.37;;;3.60;1.00;;;;;;5058678;28;20510;-63
2022/11/24 00:39:04;;;;;;;33.03;17.70;;;3.70;1.00;;;;;;5050642;28;20446;-64
2022/11/24 00:41:30;;;;;;;27.67;16.80;;;3.60;1.00;;;;;;5046333;28;20460;-63
2022/11/24 00:43:57;;;;;;;29.13;17.80;;;3.70;1.00;;;;;;5049073;28;20544;-64
2022/11/24 00:46:23;;;;;;;29.90;17.20;;;3.60;1.00;;;;;;5045383;28;20533;-64
2022/11/24 00:48:49;;;;;;;30.70;17.30;;;3.60;1.00;;;;;;5047898;28;21033;-63
2022/11/24 00:51:16;;;;;;;28.90;17.00;;;3.50;1.00;;;;;;5050859;28;20525;-63
2022/11/24 00:53:42;;;;;;;25.93;15.57;;;3.50;1.00;;;;;;5049930;28;20469;-64
2022/11/24 00:56:09;;;;;;;25.90;16.27;;;3.50;1.00;;;;;;5064633;28;20433;-65
2022/11/24 00:58:34;;;;;;;27.63;17.20;;;3.50;1.00;;;;;;5049959;28;20460;-63
2022/11/24 01:01:24;;;;;;;32.50;17.30;;;3.50;1.00;;;;;;5050121;28;20432;-64
2022/11/24 01:03:51;;;;;;;27.23;17.00;;;3.50;1.00;;;;;;5049820;28;20188;-64
2022/11/24 01:06:19;;;;;;;27.03;16.73;;;3.50;1.00;;;;;;5049135;28;20997;-63
2022/11/24 01:08:46;;;;;;;25.10;15.43;;;3.50;1.00;;;;;;5056619;28;20440;-63
2022/11/24 01:11:26;;;;;;;31.63;16.47;;;3.50;1.00;;;;;;5069966;28;20444;-64
2022/11/24 01:13:56;;;;;;;26.57;15.37;;;3.60;1.00;;;;;;5053606;28;20490;-63
2022/11/24 01:16:25;;;;;;;29.67;17.00;;;3.50;1.00;;;;;;5045734;28;20445;-64
2022/11/24 01:18:51;;;;;;;30.93;16.53;;;3.60;1.00;;;;;;5047105;28;20507;-64
2022/11/24 01:21:18;;;;;;;24.97;15.80;;;3.50;1.00;;;;;;5042551;28;20459;-64
2022/11/24 01:23:44;;;;;;;24.53;15.13;;;;;;;;;;5046426;28;20976;-65
2022/11/24 01:26:12;;;;;;;27.03;17.00;;;3.40;1.00;;;;;;5046255;28;20421;-64
2022/11/24 01:28:37;;;;;;;23.80;15.30;;;3.40;1.00;;;;;;5046546;28;20463;-64
2022/11/24 01:31:06;;;;;;;26.57;16.83;;;3.50;1.00;;;;;;5048582;28;20469;-63
2022/11/24 01:33:32;;;;;;;32.47;17.30;;;3.60;1.00;;;;;;5046639;28;20720;-65
2022/11/24 01:35:58;;;;;;;28.50;15.20;;;3.50;1.00;;;;;;5060115;28;20446;-64
2022/11/24 01:38:25;;;;;;;25.50;15.80;;;3.40;1.00;;;;;;5048980;28;20536;-63
2022/11/24 01:41:02;;;;;;;31.83;16.50;;;3.40;1.00;;;;;;5048794;28;20187;-64
2022/11/24 01:43:28;;;;;;;29.67;15.57;;;3.40;1.00;;;;;;5047117;28;20419;-63
2022/11/24 01:45:54;;;;;;;26.50;15.00;;;3.30;1.00;;;;;;5048015;28;20466;-65
2022/11/24 01:48:26;;;;;;;26.63;14.80;;;3.40;1.00;;;;;;5063354;28;20181;-64
2022/11/24 01:51:02;;;;;;;27.97;16.63;;;3.40;1.00;;;;;;5054340;28;20872;-64
2022/11/24 01:53:28;;;;;;;24.77;14.90;;;3.40;1.00;;;;;;5047909;28;20590;-63
2022/11/24 01:55:54;;;;;;;27.20;16.50;;;;;;;;;;5047080;28;20988;-64
2022/11/24 01:58:24;;;;;;;27.83;16.87;;;3.20;1.00;;;;;;5047367;28;20466;-64
2022/11/24 02:00:50;;;;;;;25.53;15.57;;;3.10;1.00;;;;;;5047462;28;20537;-64
2022/11/24 02:03:22;;;;;;;26.60;16.27;;;3.10;1.00;;;;;;5049118;28;20440;-63
2022/11/24 02:06:01;;;;;;;27.80;15.40;;;3.10;1.00;;;;;;5049220;28;20810;-64
2022/11/24 02:08:48;;;;;;;27.77;15.40;;;3.10;1.00;;;;;;5049178;28;20521;-64
2022/11/24 02:11:14;;;;;;;25.80;15.70;;;3.10;1.00;;;;;;5043853;28;20762;-64
2022/11/24 02:13:42;;;;;;;25.60;14.53;;;3.20;1.00;;;;;;5042545;28;20454;-63
2022/11/24 02:16:10;;;;;;;28.13;14.90;;;3.10;1.00;;;;;;5048378;28;20227;-64
2022/11/24 02:18:37;;;;;;;23.33;14.87;;;3.10;1.00;;;;;;5040372;28;20420;-64
2022/11/24 02:21:03;;;;;;;28.23;14.47;;;3.10;1.00;;;;;;5047623;28;20436;-63
2022/11/24 02:23:32;;;;;;;21.93;14.70;;;3.10;1.00;;;;;;5049019;28;20437;-64
2022/11/24 02:26:18;;;;;;;26.00;13.90;;;3.20;1.00;;;;;;5044119;28;20443;-63
2022/11/24 02:28:45;;;;;;;23.80;14.30;;;3.10;1.00;;;;;;5041862;28;20471;-63
2022/11/24 02:31:11;;;;;;;23.17;13.50;;;3.10;1.00;;;;;;5045061;28;20463;-63
2022/11/24 02:33:37;;;;;;;26.47;13.90;;;3.20;1.00;;;;;;5045677;28;20448;-63
2022/11/24 02:36:02;;;;;;;27.27;15.03;;;3.20;1.00;;;;;;5047284;28;20445;-64
2022/11/24 02:38:33;;;;;;;24.53;13.10;;;3.20;1.00;;;;;;5051988;28;20476;-64
2022/11/24 02:41:10;;;;;;;24.20;14.60;;;3.20;1.00;;;;;;5052186;28;21011;-63
2022/11/24 02:43:47;;;;;;;26.13;12.20;;;3.20;1.00;;;;;;5058126;28;20426;-63
2022/11/24 02:46:13;;;;;;;21.63;12.37;;;3.20;1.00;;;;;;5046734;28;20455;-64
2022/11/24 02:48:38;;;;;;;20.67;12.17;;;3.10;1.00;;;;;;5048648;28;20794;-63
2022/11/24 02:51:04;;;;;;;25.13;12.63;;;3.10;1.00;;;;;;5045331;28;20182;-64
2022/11/24 02:53:30;;;;;;;19.17;12.43;;;3.10;1.00;;;;;;5046965;28;20230;-64
2022/11/24 02:55:55;;;;;;;24.60;13.67;;;3.00;1.00;;;;;;5049169;28;20452;-63
2022/11/24 02:58:21;;;;;;;24.00;13.77;;;;;;;;;;5047967;28;20191;-64
2022/11/24 03:00:47;;;;;;;21.63;14.17;;;3.00;1.00;;;;;;5042097;28;20213;-63
2022/11/24 03:03:13;;;;;;;23.37;11.23;;;3.00;1.00;;;;;;5043233;28;20965;-64
2022/11/24 03:05:39;;;;;;;24.90;14.07;;;3.00;1.00;;;;;;5049769;28;20278;-64
2022/11/24 03:08:05;;;;;;;22.33;14.37;;;3.00;1.00;;;;;;5049279;28;20195;-63
2022/11/24 03:10:31;;;;;;;23.30;13.63;;;3.00;1.00;;;;;;5042967;28;20937;-63
2022/11/24 03:12:57;;;;;;;20.43;11.70;;;2.90;1.00;;;;;;5048038;28;20443;-63
2022/11/24 03:15:23;;;;;;;26.17;13.83;;;2.90;1.00;;;;;;5046667;28;20202;-62
2022/11/24 03:17:49;;;;;;;22.43;12.33;;;2.90;1.00;;;;;;5049175;28;20445;-63
2022/11/24 03:20:16;;;;;;;21.00;12.40;;;2.90;1.00;;;;;;5047937;28;20499;-64
2022/11/24 03:22:41;;;;;;;21.07;11.60;;;2.80;1.00;;;;;;5048697;28;20917;-64
2022/11/24 03:25:07;;;;;;;22.83;12.10;;;2.90;1.00;;;;;;5049933;28;20518;-63
2022/11/24 03:27:33;;;;;;;22.00;12.90;;;2.90;1.00;;;;;;5048974;28;20234;-64
2022/11/24 03:29:58;;;;;;;23.03;13.60;;;2.80;1.00;;;;;;5042687;28;20456;-62
2022/11/24 03:32:24;;;;;;;21.57;12.57;;;2.80;1.00;;;;;;5047541;28;20652;-64
2022/11/24 03:34:50;;;;;;;23.13;12.90;;;2.80;1.00;;;;;;5039690;28;20268;-64
2022/11/24 03:37:15;;;;;;;24.80;13.20;;;2.80;1.00;;;;;;5051661;28;20190;-65
2022/11/24 03:39:41;;;;;;;26.17;15.40;;;2.80;1.00;;;;;;5046463;28;20194;-66
2022/11/24 03:42:06;;;;;;;21.87;13.60;;;2.80;1.00;;;;;;5046319;28;20269;-64
2022/11/24 03:44:32;;;;;;;25.53;15.20;;;2.80;1.00;;;;;;5049971;28;20209;-65
2022/11/24 03:46:58;;;;;;;29.63;13.90;;;2.70;1.00;;;;;;5048379;28;20190;-63
2022/11/24 03:49:23;;;;;;;19.90;13.23;;;2.80;1.00;;;;;;5050321;28;20529;-64
2022/11/24 03:51:49;;;;;;;26.33;14.00;;;2.80;1.00;;;;;;5056190;28;20202;-64
2022/11/24 03:54:14;;;;;;;23.20;12.90;;;2.70;1.00;;;;;;5052159;28;20584;-64
2022/11/24 03:56:40;;;;;;;23.90;14.83;;;2.80;1.00;;;;;;5047476;28;20190;-64
2022/11/24 03:59:06;;;;;;;26.30;14.70;;;2.80;1.00;;;;;;5049880;28;20209;-64
2022/11/24 04:01:31;;;;;;;23.53;14.20;;;2.70;1.00;;;;;;5048217;28;20191;-64
2022/11/24 04:03:57;;;;;;;25.43;13.60;;;2.70;1.00;;;;;;5047742;28;20235;-63
2022/11/24 04:06:22;;;;;;;33.00;15.70;;;2.70;1.00;;;;;;5048972;28;20552;-63
2022/11/24 04:08:48;;;;;;;24.47;12.93;;;2.70;1.00;;;;;;5048586;28;20253;-64
2022/11/24 04:12:42;;;;;;;26.17;15.23;;;2.70;1.00;;;;;;5055923;28;20186;-64
2022/11/24 04:13:59;;;;;;;23.57;14.43;;;2.80;1.00;;;;;;5056972;28;20332;-64
2022/11/24 04:16:25;;;;;;;27.60;16.00;;;2.70;1.00;;;;;;5050671;28;20537;-65
2022/11/24 04:18:52;;;;;;;26.53;16.23;;;2.70;1.00;;;;;;5045765;28;20218;-64
2022/11/24 04:21:18;;;;;;;27.50;14.23;;;2.60;1.00;;;;;;5049369;28;20648;-63
2022/11/24 04:23:43;;;;;;;27.97;13.90;;;2.60;1.00;;;;;;5053558;28;20466;-63
2022/11/24 04:26:09;;;;;;;27.30;14.80;;;2.70;1.00;;;;;;5064730;28;20459;-63
2022/11/24 04:28:35;;;;;;;21.27;13.70;;;;;;;;;;5046298;28;20221;-63
2022/11/24 04:31:02;;;;;;;25.40;14.23;;;2.50;1.00;;;;;;5046142;28;20194;-64
2022/11/24 04:33:27;;;;;;;25.40;14.30;;;2.70;1.00;;;;;;5053989;28;21000;-64
2022/11/24 04:35:53;;;;;;;29.40;14.20;;;2.70;1.00;;;;;;5044410;28;20499;-64
2022/11/24 04:38:19;;;;;;;22.73;12.17;;;2.70;1.00;;;;;;5047410;28;20214;-64
2022/11/24 04:40:44;;;;;;;22.67;13.10;;;2.80;1.00;;;;;;5044211;28;20266;-64
2022/11/24 04:43:10;;;;;;;29.60;14.90;;;2.80;1.00;;;;;;5033809;28;20187;-63
2022/11/24 04:45:36;;;;;;;24.63;13.43;;;2.80;1.00;;;;;;5046714;28;20190;-64
2022/11/24 04:48:03;;;;;;;21.97;12.80;;;2.80;1.00;;;;;;5044247;28;20448;-64
2022/11/24 04:50:29;;;;;;;26.73;14.57;;;;;;;;;;5037689;28;20470;-63
2022/11/24 04:52:55;;;;;;;22.23;13.23;;;;;;;;;;5032091;28;20949;-62
2022/11/24 04:55:21;;;;;;;22.93;14.30;;;;;;;;;;5033901;28;21025;-64
2022/11/24 04:57:46;;;;;;;23.70;13.73;;;2.90;1.00;;;;;;5029013;28;20430;-64
2022/11/24 05:00:13;;;;;;;23.17;12.10;;;3.00;1.00;;;;;;5029415;28;20460;-64
2022/11/24 05:02:38;;;;;;;24.53;13.20;;;3.00;1.00;;;;;;5039740;28;20187;-64
2022/11/24 05:05:05;;;;;;;22.93;13.57;;;3.00;1.00;;;;;;5047057;28;20476;-63
2022/11/24 05:07:31;;;;;;;26.40;14.20;;;3.00;1.00;;;;;;5048860;28;20195;-65
2022/11/24 05:12:41;;;;;;;25.80;13.13;;;3.10;1.00;;;;;;5046524;28;20562;-64
2022/11/24 05:15:08;;;;;;;26.47;13.30;;;3.10;1.00;;;;;;5047285;28;20480;-63
2022/11/24 05:17:36;;;;;;;27.60;15.00;;;3.10;1.00;;;;;;5043282;28;20665;-64
2022/11/24 05:20:04;;;;;;;27.80;13.27;;;3.20;1.00;;;;;;5048685;28;20527;-64
2022/11/24 05:22:30;;;;;;;29.13;16.03;;;3.20;1.00;;;;;;5054991;28;20430;-65
2022/11/24 05:24:56;;;;;;;23.50;14.30;;;3.20;1.00;;;;;;5048201;28;20476;-64
2022/11/24 05:27:22;;;;;;;22.70;13.30;;;3.20;1.00;;;;;;5046965;28;20424;-64
2022/11/24 05:29:48;;;;;;;24.17;13.83;;;3.30;1.00;;;;;;5045785;28;20202;-64
2022/11/24 05:32:14;;;;;;;24.13;13.80;;;;;;;;;;5055904;28;20447;-63
2022/11/24 05:34:39;;;;;;;27.23;14.40;;;3.30;1.00;;;;;;5059842;28;20219;-65
2022/11/24 05:37:05;;;;;;;23.93;14.27;;;3.30;1.00;;;;;;5051656;28;20449;-64
2022/11/24 05:39:35;;;;;;;29.93;14.60;;;3.30;1.00;;;;;;5050765;28;20186;-64
2022/11/24 05:42:39;;;;;;;28.10;14.27;;;3.30;1.00;;;;;;5052289;28;20285;-62
2022/11/24 05:44:51;;;;;;;24.67;14.13;;;3.40;1.00;;;;;;5050150;28;20432;-64
2022/11/24 05:47:17;;;;;;;25.47;15.50;;;3.40;1.00;;;;;;5046907;28;20953;-64
2022/11/24 05:49:42;;;;;;;29.43;16.00;;;3.40;1.00;;;;;;5049302;28;20450;-65
2022/11/24 05:52:08;;;;;;;24.80;14.60;;;3.30;1.00;;;;;;5059426;28;20656;-63
2022/11/24 05:54:34;;;;;;;26.50;14.53;;;3.20;1.00;;;;;;5040422;28;20538;-64
2022/11/24 05:56:59;;;;;;;24.40;14.77;;;3.20;1.00;;;;;;5042567;28;20470;-63
2022/11/24 05:59:25;;;;;;;29.30;13.30;;;3.20;1.00;;;;;;5044038;28;20212;-65
2022/11/24 06:01:50;;;;;;;23.63;14.27;;;3.30;1.00;;;;;;5045754;28;20209;-64
2022/11/24 06:04:16;;;;;;;31.93;16.70;;;3.40;1.00;;;;;;5047168;28;20186;-64
2022/11/24 06:06:42;;;;;;;27.70;16.80;;;3.50;1.00;;;;;;5047511;28;20197;-63
2022/11/24 06:09:07;;;;;;;23.10;13.70;;;3.50;1.00;;;;;;5043793;28;20194;-64
2022/11/24 06:11:33;;;;;;;22.90;14.17;;;;;;;;;;5052198;28;20244;-65
2022/11/24 06:13:59;;;;;;;24.47;14.83;;;3.60;1.00;;;;;;5048991;28;21694;-64
2022/11/24 06:16:25;;;;;;;24.40;14.07;;;3.60;1.00;;;;;;5053018;28;20546;-64
2022/11/24 06:18:50;;;;;;;23.93;13.83;;;3.60;1.00;;;;;;5057592;28;20640;-63
2022/11/24 06:21:16;;;;;;;24.07;13.90;;;3.70;1.00;;;;;;5060248;28;20182;-64
2022/11/24 06:23:42;;;;;;;25.10;14.10;;;;;;;;;;5053073;28;20654;-64
2022/11/24 06:26:08;;;;;;;20.90;13.60;;;3.70;1.00;;;;;;5051342;28;20186;-65
2022/11/24 06:28:34;;;;;;;25.63;14.93;;;3.70;1.00;;;;;;5050744;28;20423;-64
2022/11/24 06:31:04;;;;;;;21.57;13.23;;;3.80;1.00;;;;;;5052380;28;20183;-64
2022/11/24 06:33:32;;;;;;;22.50;12.43;;;3.90;1.00;;;;;;5052421;28;20455;-64
2022/11/24 06:36:00;;;;;;;35.90;15.33;;;4.00;1.00;;;;;;5046988;28;20463;-65
2022/11/24 06:38:26;;;;;;;24.63;14.10;;;4.00;1.00;;;;;;5052556;28;20435;-65
2022/11/24 06:40:58;;;;;;;24.53;12.77;;;4.10;1.00;;;;;;5054086;28;20469;-63
2022/11/24 06:43:26;;;;;;;27.67;14.33;;;4.20;1.00;;;;;;5054847;28;20592;-64
2022/11/24 06:45:52;;;;;;;24.43;14.37;;;4.20;1.00;;;;;;5056331;28;20414;-64
2022/11/24 06:48:17;;;;;;;25.77;13.70;;;4.30;1.00;;;;;;5048237;28;20511;-64
2022/11/24 06:50:43;;;;;;;25.40;13.67;;;4.30;1.00;;;;;;5047499;28;20186;-64
2022/11/24 06:53:09;;;;;;;22.27;12.40;;;4.40;1.00;;;;;;5049672;28;20284;-64
2022/11/24 06:55:34;;;;;;;29.03;14.10;;;4.40;1.00;;;;;;5046465;28;20206;-64
2022/11/24 06:58:00;;;;;;;28.60;15.60;;;4.40;1.00;;;;;;5045339;28;20199;-64
2022/11/24 07:00:28;;;;;;;37.10;13.70;;;4.40;1.00;;;;;;5047556;28;20637;-64
2022/11/24 07:02:53;;;;;;;35.43;15.13;;;4.40;1.00;;;;;;5047216;28;20427;-65
2022/11/24 07:05:19;;;;;;;31.30;14.83;;;4.50;1.00;;;;;;5051069;28;20444;-64
2022/11/24 07:07:45;;;;;;;33.17;16.20;;;4.50;1.00;;;;;;5049666;28;20620;-63
2022/11/24 07:10:10;;;;;;;29.73;13.83;;;4.50;1.00;;;;;;5048364;28;20600;-64
2022/11/24 07:12:36;;;;;;;23.50;13.97;;;4.60;1.00;;;;;;5052116;28;20521;-63
2022/11/24 07:15:01;;;;;;;26.07;14.97;;;4.70;1.00;;;;;;5050332;28;20259;-64
2022/11/24 07:17:27;;;;;;;22.53;12.50;;;4.70;1.00;;;;;;5049295;28;20191;-64
2022/11/24 07:19:53;;;;;;;19.23;13.77;;;4.70;1.00;;;;;;5050648;28;20187;-63
2022/11/24 07:22:18;;;;;;;22.90;14.43;;;4.70;1.00;;;;;;5050720;28;20188;-64
2022/11/24 07:24:44;;;;;;;28.00;15.40;;;;;;;;;;5049991;28;20544;-64
2022/11/24 07:27:10;;;;;;;23.23;13.27;;;4.80;1.00;;;;;;5049016;28;20280;-63
2022/11/24 07:29:36;;;;;;;26.97;14.53;;;;;;;;;;5049037;28;20956;-62
2022/11/24 07:32:01;;;;;;;31.13;14.27;;;4.70;1.00;;;;;;5047453;28;20196;-64
2022/11/24 07:34:27;;;;;;;27.80;14.83;;;4.70;1.00;;;;;;5054749;28;20449;-65
2022/11/24 07:36:53;;;;;;;23.43;16.60;;;;;;;;;;5046411;28;20187;-64
2022/11/24 07:39:18;;;;;;;25.93;14.17;;;4.70;1.00;;;;;;5049532;28;20470;-64
2022/11/24 07:41:44;;;;;;;30.53;15.23;;;;;;;;;;5052782;28;20452;-65
2022/11/24 07:44:10;;;;;;;27.33;14.70;;;4.80;1.00;;;;;;5051499;28;20222;-63
2022/11/24 07:46:35;;;;;;;26.00;15.10;;;4.90;1.00;;;;;;5053804;28;20465;-64
2022/11/24 07:49:01;;;;;;;28.80;15.90;;;4.90;1.00;;;;;;5051494;28;20943;-64
2022/11/24 07:51:27;;;;;;;34.70;16.17;;;5.00;1.00;;;;;;5049642;28;20192;-65
2022/11/24 07:53:52;;;;;;;23.90;16.70;;;5.00;1.00;;;;;;5047813;28;20266;-64
2022/11/24 07:56:18;;;;;;;31.37;17.07;;;5.00;1.00;;;;;;5048686;28;20185;-63
2022/11/24 07:58:44;;;;;;;27.60;14.30;;;;;;;;;;5049941;28;20190;-64
2022/11/24 08:01:11;;;;;;;27.60;15.90;;;5.10;1.00;;;;;;5046547;28;20202;-64
2022/11/24 08:03:36;;;;;;;23.20;13.60;;;5.10;1.00;;;;;;5048495;28;20445;-63
2022/11/24 08:06:02;;;;;;;20.53;15.50;;;;;;;;;;5048053;28;20419;-64
2022/11/24 08:08:32;;;;;;;30.07;15.77;;;5.40;1.00;;;;;;5047316;28;20217;-64
2022/11/24 08:10:57;;;;;;;23.23;14.50;;;5.40;1.00;;;;;;5047957;28;20581;-64
2022/11/24 08:13:23;;;;;;;28.77;16.17;;;5.40;1.00;;;;;;5048744;28;20878;-63
2022/11/24 08:15:49;;;;;;;25.57;14.10;;;;;;;;;;5048336;28;20259;-64
2022/11/24 08:18:14;;;;;;;24.83;15.63;;;5.60;1.00;;;;;;5056408;28;20281;-64
2022/11/24 08:20:40;;;;;;;25.57;15.10;;;5.70;1.00;;;;;;5059243;28;20449;-64
2022/11/24 08:23:06;;;;;;;22.73;15.00;;;5.80;1.00;;;;;;5050147;28;20195;-63
2022/11/24 08:25:32;;;;;;;23.27;14.37;;;5.80;1.00;;;;;;5048187;28;20234;-65
2022/11/24 08:28:02;;;;;;;23.63;15.37;;;5.90;1.00;;;;;;5045035;28;20673;-64
2022/11/24 08:30:28;;;;;;;28.10;15.70;;;6.00;1.00;;;;;;5048418;28;20450;-63
2022/11/24 08:32:54;;;;;;;28.63;15.47;;;6.10;1.00;;;;;;5049839;28;20457;-65
2022/11/24 08:35:20;;;;;;;25.03;15.57;;;6.00;1.00;;;;;;5047861;28;20941;-65
2022/11/24 08:37:46;;;;;;;19.80;13.40;;;6.10;1.00;;;;;;5040553;28;20199;-64
2022/11/24 08:40:12;;;;;;;21.60;14.50;;;;;;;;;;5047320;28;20449;-65
2022/11/24 08:42:38;;;;;;;22.63;14.60;;;;;;;;;;5045434;28;20546;-66
2022/11/24 08:45:04;;;;;;;23.13;14.03;;;6.20;1.00;;;;;;5046899;28;20477;-65
2022/11/24 08:47:30;;;;;;;25.93;14.43;;;6.30;1.00;;;;;;5048938;28;20427;-65
2022/11/24 08:49:56;;;;;;;23.83;15.03;;;6.30;1.00;;;;;;5049947;28;20450;-64
2022/11/24 08:52:21;;;;;;;25.10;13.93;;;6.40;1.00;;;;;;5048947;28;20219;-64
2022/11/24 08:54:48;;;;;;;23.53;14.67;;;;;;;;;;5047787;28;20280;-64
2022/11/24 08:57:13;;;;;;;18.67;12.70;;;6.30;1.00;;;;;;5045300;28;20183;-63
2022/11/24 08:59:39;;;;;;;22.37;14.87;;;6.30;1.00;;;;;;5041404;28;20806;-64
2022/11/24 09:02:05;;;;;;;20.73;14.20;;;6.30;1.00;;;;;;5049054;28;20196;-65
2022/11/24 09:04:31;;;;;;;22.97;14.77;;;;;;;;;;5060202;28;20218;-64
2022/11/24 09:06:58;;;;;;;21.90;14.17;;;;;;;;;;5049503;28;21070;-63
2022/11/24 09:09:23;;;;;;;32.10;15.10;;;;;;;;;;5047173;28;20431;-64
2022/11/24 09:11:49;;;;;;;24.83;14.43;;;6.30;1.00;;;;;;5043441;28;20465;-65
2022/11/24 09:14:15;;;;;;;29.03;16.40;;;6.30;1.00;;;;;;5049138;28;20878;-63
2022/11/24 09:16:40;;;;;;;24.80;14.73;;;6.30;1.00;;;;;;5046129;28;20305;-65
2022/11/24 09:19:09;;;;;;;22.87;14.00;;;6.40;1.00;;;;;;5049524;28;20183;-64
2022/11/24 09:21:37;;;;;;;22.60;13.77;;;6.30;1.00;;;;;;5048044;28;20190;-65
2022/11/24 09:24:04;;;;;;;23.13;13.77;;;6.30;1.00;;;;;;5048805;28;20441;-65
2022/11/24 09:26:32;;;;;;;19.90;14.37;;;6.40;1.00;;;;;;5045447;28;20446;-64
2022/11/24 09:28:59;;;;;;;24.57;14.40;;;6.40;1.00;;;;;;5048207;28;20445;-64
2022/11/24 09:31:27;;;;;;;22.60;14.90;;;6.40;1.00;;;;;;5046036;28;20420;-64
2022/11/24 09:33:53;;;;;;;22.07;14.33;;;6.50;1.00;;;;;;5043369;28;20584;-64
2022/11/24 09:36:19;;;;;;;31.50;15.60;;;6.50;1.00;;;;;;5049825;28;20968;-64
2022/11/24 09:38:45;;;;;;;29.50;16.00;;;6.50;1.00;;;;;;5047354;28;20502;-64
2022/11/24 09:41:16;;;;;;;21.60;14.40;;;6.60;1.00;;;;;;5047833;28;21087;-65
2022/11/24 09:44:03;;;;;;;23.00;14.10;;;6.60;1.00;;;;;;5045387;28;20926;-64
2022/11/24 09:46:54;;;;;;;21.93;14.53;;;6.70;1.00;;;;;;5052385;28;20748;-63
2022/11/24 09:49:46;;;;;;;20.30;12.67;;;6.70;1.00;;;;;;5058062;28;20448;-64
2022/11/24 09:52:17;;;;;;;20.43;13.30;;;6.70;1.00;;;;;;5053867;28;20491;-65
2022/11/24 09:54:55;;;;;;;19.17;13.00;;;6.80;1.00;;;;;;5042474;28;20463;-64
2022/11/24 09:57:25;;;;;;;28.20;13.90;;;6.80;1.00;;;;;;5040535;28;20467;-64
2022/11/24 09:59:51;;;;;;;22.90;13.93;;;;;;;;;;5048087;28;20443;-65
2022/11/24 10:02:17;;;;;;;22.47;14.33;;;6.90;1.00;;;;;;5058321;28;20511;-64
2022/11/24 10:04:45;;;;;;;18.27;13.17;;;7.00;1.00;;;;;;5068980;28;20506;-64
2022/11/24 10:07:10;;;;;;;23.10;13.90;;;7.00;1.00;;;;;;5051088;28;20210;-66
2022/11/24 10:10:01;;;;;;;19.67;13.53;;;7.00;1.00;;;;;;5048105;28;20453;-64
2022/11/24 10:12:40;;;;;;;21.03;12.77;;;7.00;1.00;;;;;;5046637;28;20194;-65
2022/11/24 10:15:24;;;;;;;20.73;13.80;;;7.10;1.00;;;;;;5048824;28;20449;-65
2022/11/24 10:18:04;;;;;;;19.73;13.67;;;7.10;1.00;;;;;;5048889;28;20441;-64
2022/11/24 10:21:02;;;;;;;21.10;13.00;;;7.00;1.00;;;;;;5049008;28;20448;-66
2022/11/24 10:23:56;;;;;;;19.50;12.83;;;7.10;1.00;;;;;;5038441;28;20453;-64
2022/11/24 10:26:45;;;;;;;21.57;14.00;;;7.20;1.00;;;;;;5048985;28;20759;-66
2022/11/24 10:29:23;;;;;;;26.27;14.80;;;7.20;1.00;;;;;;5048611;28;20951;-65
2022/11/24 10:31:53;;;;;;;19.30;12.83;;;7.40;1.00;;;;;;5048534;28;20904;-65
2022/11/24 10:34:36;;;;;;;21.57;13.60;;;7.60;1.00;;;;;;5049058;28;20461;-65
2022/11/24 10:37:28;;;;;;;21.80;13.93;;;7.70;1.00;;;;;;5048650;28;20939;-65
2022/11/24 10:40:31;;;;;;;21.37;12.53;;;7.80;1.00;;;;;;5046672;28;20452;-65
2022/11/24 10:42:57;;;;;;;20.60;13.00;;;7.70;1.00;;;;;;5048948;28;20803;-65
2022/11/24 10:45:27;;;;;;;19.87;12.43;;;7.60;1.00;;;;;;5047989;28;20419;-66
2022/11/24 10:47:52;;;;;;;19.73;12.70;;;7.60;1.00;;;;;;5048704;28;20238;-64
2022/11/24 10:50:31;;;;;;;18.83;12.33;;;7.50;1.00;;;;;;5048753;28;20442;-65
2022/11/24 10:53:17;;;;;;;16.90;12.03;;;7.60;1.00;;;;;;5048026;28;20293;-64
2022/11/24 10:55:55;;;;;;;15.53;12.20;;;7.50;1.00;;;;;;5048679;28;20483;-65
2022/11/24 10:58:39;;;;;;;17.97;13.47;;;7.60;1.00;;;;;;5048795;28;21097;-64
2022/11/24 11:01:13;;;;;;;17.13;12.17;;;7.60;1.00;;;;;;5052100;28;20405;-65
2022/11/24 11:03:50;;;;;;;18.10;12.47;;;7.70;1.00;;;;;;5052141;28;20450;-65
2022/11/24 11:06:31;;;;;;;18.07;11.80;;;7.60;1.00;;;;;;5051449;28;20435;-64
2022/11/24 11:09:06;;;;;;;22.70;14.70;;;7.70;1.00;;;;;;5050446;28;20510;-65
2022/11/24 11:11:33;;;;;;;17.33;12.37;;;7.90;1.00;;;;;;5051539;28;20497;-64
2022/11/24 11:14:04;;;;;;;21.93;13.20;;;7.80;1.00;;;;;;5051882;28;20588;-64
2022/11/24 11:16:47;;;;;;;19.20;12.50;;;7.80;1.00;;;;;;5051843;28;20438;-64
2022/11/24 11:19:34;;;;;;;20.53;13.63;;;7.90;1.00;;;;;;5051688;28;21163;-65
2022/11/24 11:22:01;;;;;;;18.37;13.20;;;8.10;1.00;;;;;;5051134;28;20863;-64
2022/11/24 11:24:27;;;;;;;17.90;12.70;;;8.40;1.00;;;;;;5050255;28;20443;-64
2022/11/24 11:27:04;;;;;;;18.70;13.50;;;8.60;1.00;;;;;;5051944;28;20448;-65
2022/11/24 11:29:30;;;;;;;18.70;13.17;;;8.80;1.00;;;;;;5051501;28;20436;-65
2022/11/24 11:31:59;;;;;;;19.87;13.57;;;8.80;1.00;;;;;;5051701;28;20417;-65
2022/11/24 11:34:25;;;;;;;16.93;13.53;;;9.30;1.00;;;;;;5051573;28;20235;-64
2022/11/24 11:36:53;;;;;;;17.70;12.70;;;9.40;1.00;;;;;;5051690;28;20449;-65
2022/11/24 11:39:41;;;;;;;19.33;12.53;;;9.40;1.00;;;;;;5048252;28;20446;-64
2022/11/24 11:42:32;;;;;;;17.90;12.87;;;9.30;1.00;;;;;;5051790;28;20414;-65
2022/11/24 11:45:14;;;;;;;16.60;12.93;;;9.20;1.00;;;;;;5051539;28;20410;-65
2022/11/24 11:48:01;;;;;;;22.10;15.57;;;9.00;1.00;;;;;;5058104;28;20431;-64
2022/11/24 11:50:45;;;;;;;23.77;14.73;;;8.90;1.00;;;;;;5051162;28;21013;-65
2022/11/24 11:53:25;;;;;;;17.97;13.20;;;8.90;1.00;;;;;;5050960;28;20441;-64
2022/11/24 11:56:06;;;;;;;19.60;13.77;;;8.90;1.00;;;;;;5050635;28;20469;-65
2022/11/24 11:58:53;;;;;;;22.37;15.77;;;8.90;1.00;;;;;;5050962;28;20411;-65
2022/11/24 12:01:40;;;;;;;20.17;15.33;;;8.90;1.00;;;;;;5051338;28;20475;-65
2022/11/24 12:04:08;;;;;;;19.30;14.40;;;8.90;1.00;;;;;;5051314;28;20958;-63
2022/11/24 12:06:54;;;;;;;17.23;13.10;;;8.80;1.00;;;;;;5051187;28;20406;-64
2022/11/24 12:09:53;;;;;;;27.60;15.27;;;8.90;1.00;;;;;;5055489;28;20883;-65
2022/11/24 12:12:58;;;;;;;24.37;15.10;;;8.90;1.00;;;;;;5071218;28;20437;-65
2022/11/24 12:15:44;;;;;;;16.77;12.07;;;8.80;1.00;;;;;;5070722;28;20447;-65
2022/11/24 12:18:52;;;;;;;19.90;13.20;;;8.80;1.00;;;;;;5056137;28;20435;-65
2022/11/24 12:21:28;;;;;;;21.00;14.50;;;8.80;1.00;;;;;;5050427;28;20424;-65
2022/11/24 12:24:03;;;;;;;21.33;14.63;;;8.80;1.00;;;;;;5050449;28;20502;-64
2022/11/24 12:26:43;;;;;;;20.73;13.87;;;8.90;1.00;;;;;;5050791;28;20441;-64
2022/11/24 12:29:43;;;;;;;17.37;13.80;;;8.90;1.00;;;;;;5050351;28;20432;-64
2022/11/24 12:32:46;;;;;;;19.93;14.80;;;9.00;1.00;;;;;;5046769;28;20503;-64
2022/11/24 12:35:38;;;;;;;18.20;13.77;;;8.90;1.00;;;;;;5050508;28;20899;-63
2022/11/24 12:38:22;;;;;;;22.40;14.73;;;8.80;1.00;;;;;;5057774;28;20526;-65
2022/11/24 12:40:59;;;;;;;22.40;13.80;;;8.80;1.00;;;;;;5060351;28;20899;-64
2022/11/24 12:43:33;;;;;;;19.13;13.37;;;8.80;1.00;;;;;;5070221;28;20438;-65
2022/11/24 12:46:17;;;;;;;20.00;14.53;;;8.80;1.00;;;;;;5067386;28;20518;-65
2022/11/24 12:49:02;;;;;;;20.87;15.00;;;8.80;1.00;;;;;;5050057;28;20962;-64
2022/11/24 12:51:33;;;;;;;19.50;12.50;;;8.90;1.00;;;;;;5049975;28;20499;-65
2022/11/24 12:54:02;;;;;;;22.67;14.53;;;8.90;1.00;;;;;;5048466;28;20521;-64
2022/11/24 12:56:48;;;;;;;22.03;14.97;;;9.00;1.00;;;;;;5050118;28;20776;-65
2022/11/24 12:59:32;;;;;;;22.60;13.77;;;9.00;1.00;;;;;;5050027;28;20763;-65
2022/11/24 13:02:14;;;;;;;18.60;13.73;;;8.90;1.00;;;;;;5047105;28;20452;-63
2022/11/24 13:04:53;;;;;;;19.70;13.90;;;9.00;1.00;;;;;;5049980;28;21000;-65
2022/11/24 13:07:32;;;;;;;19.60;13.10;;;9.10;1.00;;;;;;5061210;28;20861;-65
2022/11/24 13:10:26;;;;;;;22.60;13.57;;;9.10;1.00;;;;;;5050020;28;20432;-65
2022/11/24 13:13:11;;;;;;;23.80;14.83;;;9.10;1.00;;;;;;5044191;28;20447;-64